sensor_id;sensor_type;location;lat;lon;timestamp;P1;durP1;ratioP1;P2;durP2;ratioP2
16998;SDS011;10211;49.476;11.010;2023-11-19T00:02:21;3.57;;;2.73;;
16998;SDS011;10211;49.476;11.010;2023-11-19T00:04:50;2.53;;;2.33;;
16998;SDS011;10211;49.476;11.010;2023-11-19T00:07:16;2.97;;;2.10;;
16998;SDS011;10211;49.476;11.010;2023-11-19T00:09:43;3.17;;;2.63;;
16998;SDS011;10211;49.476;11.010;2023-11-19T00:12:10;2.90;;;2.60;;
16998;SDS011;10211;49.476;11.010;2023-11-19T00:14:38;3.00;;;2.13;;
16998;SDS011;10211;49.476;11.010;2023-11-19T00:17:05;2.93;;;2.73;;
16998;SDS011;10211;49.476;11.010;2023-11-19T00:19:31;2.20;;;2.00;;
16998;SDS011;10211;49.476;11.010;2023-11-19T00:21:59;2.47;;;2.27;;
16998;SDS011;10211;49.476;11.010;2023-11-19T00:24:28;3.63;;;2.53;;
16998;SDS011;10211;49.476;11.010;2023-11-19T00:26:56;3.73;;;2.13;;
16998;SDS011;10211;49.476;11.010;2023-11-19T00:29:23;3.37;;;2.63;;
16998;SDS011;10211;49.476;11.010;2023-11-19T00:31:50;2.83;;;2.43;;
16998;SDS011;10211;49.476;11.010;2023-11-19T00:34:17;2.07;;;1.97;;
16998;SDS011;10211;49.476;11.010;2023-11-19T00:36:46;2.97;;;2.10;;
16998;SDS011;10211;49.476;11.010;2023-11-19T00:39:14;2.47;;;2.27;;
16998;SDS011;10211;49.476;11.010;2023-11-19T00:41:42;2.83;;;2.27;;
16998;SDS011;10211;49.476;11.010;2023-11-19T00:44:11;5.60;;;2.60;;
16998;SDS011;10211;49.476;11.010;2023-11-19T00:46:37;3.57;;;2.80;;
16998;SDS011;10211;49.476;11.010;2023-11-19T00:49:04;2.97;;;2.77;;
16998;SDS011;10211;49.476;11.010;2023-11-19T00:51:31;3.10;;;2.50;;
16998;SDS011;10211;49.476;11.010;2023-11-19T00:53:58;2.60;;;2.37;;
16998;SDS011;10211;49.476;11.010;2023-11-19T00:56:27;3.60;;;2.47;;
16998;SDS011;10211;49.476;11.010;2023-11-19T00:58:54;2.90;;;2.60;;
16998;SDS011;10211;49.476;11.010;2023-11-19T01:01:21;4.07;;;2.70;;
16998;SDS011;10211;49.476;11.010;2023-11-19T01:03:48;3.20;;;2.70;;
16998;SDS011;10211;49.476;11.010;2023-11-19T01:06:15;2.70;;;2.50;;
16998;SDS011;10211;49.476;11.010;2023-11-19T01:08:52;3.40;;;2.63;;
16998;SDS011;10211;49.476;11.010;2023-11-19T01:11:20;3.97;;;1.80;;
16998;SDS011;10211;49.476;11.010;2023-11-19T01:13:48;2.80;;;2.57;;
16998;SDS011;10211;49.476;11.010;2023-11-19T01:16:15;2.50;;;2.30;;
16998;SDS011;10211;49.476;11.010;2023-11-19T01:18:42;2.47;;;2.27;;
16998;SDS011;10211;49.476;11.010;2023-11-19T01:21:09;3.23;;;2.63;;
16998;SDS011;10211;49.476;11.010;2023-11-19T01:23:35;2.97;;;2.73;;
16998;SDS011;10211;49.476;11.010;2023-11-19T01:26:03;3.13;;;2.30;;
16998;SDS011;10211;49.476;11.010;2023-11-19T01:28:31;2.17;;;2.00;;
16998;SDS011;10211;49.476;11.010;2023-11-19T01:30:59;3.40;;;2.50;;
16998;SDS011;10211;49.476;11.010;2023-11-19T01:33:25;2.60;;;2.30;;
16998;SDS011;10211;49.476;11.010;2023-11-19T01:35:52;3.13;;;2.83;;
16998;SDS011;10211;49.476;11.010;2023-11-19T01:38:19;2.63;;;2.43;;
16998;SDS011;10211;49.476;11.010;2023-11-19T01:40:46;3.10;;;2.37;;
16998;SDS011;10211;49.476;11.010;2023-11-19T01:43:22;2.43;;;2.23;;
16998;SDS011;10211;49.476;11.010;2023-11-19T01:45:59;6.27;;;2.47;;
16998;SDS011;10211;49.476;11.010;2023-11-19T01:48:26;4.27;;;2.83;;
16998;SDS011;10211;49.476;11.010;2023-11-19T01:50:53;2.83;;;2.63;;
16998;SDS011;10211;49.476;11.010;2023-11-19T01:53:20;3.03;;;2.73;;
16998;SDS011;10211;49.476;11.010;2023-11-19T01:55:47;3.10;;;2.73;;
16998;SDS011;10211;49.476;11.010;2023-11-19T01:58:14;3.30;;;2.70;;
16998;SDS011;10211;49.476;11.010;2023-11-19T02:00:42;2.83;;;2.63;;
16998;SDS011;10211;49.476;11.010;2023-11-19T02:03:12;3.10;;;2.63;;
16998;SDS011;10211;49.476;11.010;2023-11-19T02:05:41;2.77;;;2.50;;
16998;SDS011;10211;49.476;11.010;2023-11-19T02:08:08;3.23;;;2.60;;
16998;SDS011;10211;49.476;11.010;2023-11-19T02:10:35;2.80;;;2.53;;
16998;SDS011;10211;49.476;11.010;2023-11-19T02:13:01;3.60;;;2.67;;
16998;SDS011;10211;49.476;11.010;2023-11-19T02:15:31;3.27;;;2.87;;
16998;SDS011;10211;49.476;11.010;2023-11-19T02:18:10;3.43;;;2.70;;
16998;SDS011;10211;49.476;11.010;2023-11-19T02:20:46;3.23;;;2.90;;
16998;SDS011;10211;49.476;11.010;2023-11-19T02:23:13;3.57;;;3.17;;
16998;SDS011;10211;49.476;11.010;2023-11-19T02:25:40;2.93;;;2.67;;
16998;SDS011;10211;49.476;11.010;2023-11-19T02:28:09;2.67;;;2.47;;
16998;SDS011;10211;49.476;11.010;2023-11-19T02:30:37;15.80;;;3.70;;
16998;SDS011;10211;49.476;11.010;2023-11-19T02:33:04;9.87;;;3.53;;
16998;SDS011;10211;49.476;11.010;2023-11-19T02:35:31;5.30;;;2.90;;
16998;SDS011;10211;49.476;11.010;2023-11-19T02:37:59;3.30;;;3.00;;
16998;SDS011;10211;49.476;11.010;2023-11-19T02:40:26;4.60;;;2.93;;
16998;SDS011;10211;49.476;11.010;2023-11-19T02:42:53;3.23;;;2.87;;
16998;SDS011;10211;49.476;11.010;2023-11-19T02:45:23;3.57;;;3.27;;
16998;SDS011;10211;49.476;11.010;2023-11-19T02:47:50;3.70;;;3.20;;
16998;SDS011;10211;49.476;11.010;2023-11-19T02:50:17;3.50;;;2.97;;
16998;SDS011;10211;49.476;11.010;2023-11-19T02:52:50;3.97;;;3.33;;
16998;SDS011;10211;49.476;11.010;2023-11-19T02:55:18;5.30;;;4.00;;
16998;SDS011;10211;49.476;11.010;2023-11-19T02:57:45;3.63;;;3.23;;
16998;SDS011;10211;49.476;11.010;2023-11-19T03:00:13;3.63;;;3.30;;
16998;SDS011;10211;49.476;11.010;2023-11-19T03:02:42;5.70;;;3.50;;
16998;SDS011;10211;49.476;11.010;2023-11-19T03:05:11;8.00;;;3.57;;
16998;SDS011;10211;49.476;11.010;2023-11-19T03:07:39;5.63;;;3.87;;
16998;SDS011;10211;49.476;11.010;2023-11-19T03:10:08;5.60;;;3.47;;
16998;SDS011;10211;49.476;11.010;2023-11-19T03:12:38;3.50;;;3.20;;
16998;SDS011;10211;49.476;11.010;2023-11-19T03:15:05;3.53;;;3.23;;
16998;SDS011;10211;49.476;11.010;2023-11-19T03:17:34;5.30;;;3.80;;
16998;SDS011;10211;49.476;11.010;2023-11-19T03:20:03;6.47;;;3.30;;
16998;SDS011;10211;49.476;11.010;2023-11-19T03:22:32;6.20;;;4.23;;
16998;SDS011;10211;49.476;11.010;2023-11-19T03:25:00;6.10;;;3.77;;
16998;SDS011;10211;49.476;11.010;2023-11-19T03:27:26;3.67;;;3.10;;
16998;SDS011;10211;49.476;11.010;2023-11-19T03:29:53;9.67;;;4.13;;
16998;SDS011;10211;49.476;11.010;2023-11-19T03:32:20;4.63;;;3.70;;
16998;SDS011;10211;49.476;11.010;2023-11-19T03:34:46;17.23;;;4.97;;
16998;SDS011;10211;49.476;11.010;2023-11-19T03:37:15;4.53;;;3.90;;
16998;SDS011;10211;49.476;11.010;2023-11-19T03:39:42;5.90;;;3.90;;
16998;SDS011;10211;49.476;11.010;2023-11-19T03:42:09;7.43;;;3.90;;
16998;SDS011;10211;49.476;11.010;2023-11-19T03:44:36;6.10;;;3.67;;
16998;SDS011;10211;49.476;11.010;2023-11-19T03:47:03;4.73;;;3.60;;
16998;SDS011;10211;49.476;11.010;2023-11-19T03:49:31;4.63;;;4.23;;
16998;SDS011;10211;49.476;11.010;2023-11-19T03:51:57;4.70;;;3.60;;
16998;SDS011;10211;49.476;11.010;2023-11-19T03:54:26;4.60;;;4.13;;
16998;SDS011;10211;49.476;11.010;2023-11-19T03:56:52;4.27;;;3.33;;
16998;SDS011;10211;49.476;11.010;2023-11-19T03:59:19;4.70;;;3.77;;
16998;SDS011;10211;49.476;11.010;2023-11-19T04:01:46;4.57;;;3.83;;
16998;SDS011;10211;49.476;11.010;2023-11-19T04:04:13;4.20;;;3.70;;
16998;SDS011;10211;49.476;11.010;2023-11-19T04:06:40;5.33;;;4.17;;
16998;SDS011;10211;49.476;11.010;2023-11-19T04:09:06;5.37;;;4.23;;
16998;SDS011;10211;49.476;11.010;2023-11-19T04:11:35;5.50;;;4.53;;
16998;SDS011;10211;49.476;11.010;2023-11-19T04:14:02;6.17;;;4.33;;
16998;SDS011;10211;49.476;11.010;2023-11-19T04:16:28;5.53;;;4.60;;
16998;SDS011;10211;49.476;11.010;2023-11-19T04:18:55;5.07;;;4.30;;
16998;SDS011;10211;49.476;11.010;2023-11-19T04:21:22;5.77;;;4.53;;
16998;SDS011;10211;49.476;11.010;2023-11-19T04:23:49;6.67;;;5.07;;
16998;SDS011;10211;49.476;11.010;2023-11-19T04:26:16;6.40;;;4.77;;
16998;SDS011;10211;49.476;11.010;2023-11-19T04:28:44;6.27;;;4.80;;
16998;SDS011;10211;49.476;11.010;2023-11-19T04:31:10;7.47;;;4.43;;
16998;SDS011;10211;49.476;11.010;2023-11-19T04:33:37;7.23;;;4.73;;
16998;SDS011;10211;49.476;11.010;2023-11-19T04:36:04;5.37;;;4.70;;
16998;SDS011;10211;49.476;11.010;2023-11-19T04:38:32;5.30;;;4.00;;
16998;SDS011;10211;49.476;11.010;2023-11-19T04:40:59;4.70;;;4.07;;
16998;SDS011;10211;49.476;11.010;2023-11-19T04:43:26;5.63;;;4.47;;
16998;SDS011;10211;49.476;11.010;2023-11-19T04:45:54;5.33;;;4.37;;
16998;SDS011;10211;49.476;11.010;2023-11-19T04:48:21;4.80;;;4.00;;
16998;SDS011;10211;49.476;11.010;2023-11-19T04:50:48;6.57;;;4.90;;
16998;SDS011;10211;49.476;11.010;2023-11-19T04:53:15;6.80;;;5.27;;
16998;SDS011;10211;49.476;11.010;2023-11-19T04:55:42;5.57;;;4.60;;
16998;SDS011;10211;49.476;11.010;2023-11-19T04:58:09;5.57;;;4.77;;
16998;SDS011;10211;49.476;11.010;2023-11-19T05:00:35;8.20;;;5.63;;
16998;SDS011;10211;49.476;11.010;2023-11-19T05:03:03;7.47;;;6.57;;
16998;SDS011;10211;49.476;11.010;2023-11-19T05:05:30;4.90;;;4.40;;
16998;SDS011;10211;49.476;11.010;2023-11-19T05:07:57;8.57;;;5.50;;
16998;SDS011;10211;49.476;11.010;2023-11-19T05:10:24;7.90;;;5.60;;
16998;SDS011;10211;49.476;11.010;2023-11-19T05:12:50;6.87;;;6.17;;
16998;SDS011;10211;49.476;11.010;2023-11-19T05:15:17;5.90;;;4.67;;
16998;SDS011;10211;49.476;11.010;2023-11-19T05:17:44;6.53;;;5.20;;
16998;SDS011;10211;49.476;11.010;2023-11-19T05:20:12;8.40;;;5.43;;
16998;SDS011;10211;49.476;11.010;2023-11-19T05:22:40;6.37;;;5.47;;
16998;SDS011;10211;49.476;11.010;2023-11-19T05:25:07;7.33;;;6.27;;
16998;SDS011;10211;49.476;11.010;2023-11-19T05:27:35;7.70;;;6.90;;
16998;SDS011;10211;49.476;11.010;2023-11-19T05:30:03;9.10;;;8.27;;
16998;SDS011;10211;49.476;11.010;2023-11-19T05:32:32;8.60;;;7.80;;
16998;SDS011;10211;49.476;11.010;2023-11-19T05:34:59;8.30;;;7.60;;
16998;SDS011;10211;49.476;11.010;2023-11-19T05:37:28;7.97;;;7.27;;
16998;SDS011;10211;49.476;11.010;2023-11-19T05:39:54;7.53;;;6.93;;
16998;SDS011;10211;49.476;11.010;2023-11-19T05:42:21;8.00;;;7.30;;
16998;SDS011;10211;49.476;11.010;2023-11-19T05:44:49;7.90;;;7.20;;
16998;SDS011;10211;49.476;11.010;2023-11-19T05:47:17;7.93;;;7.23;;
16998;SDS011;10211;49.476;11.010;2023-11-19T05:49:43;7.77;;;7.17;;
16998;SDS011;10211;49.476;11.010;2023-11-19T05:52:10;8.37;;;7.50;;
16998;SDS011;10211;49.476;11.010;2023-11-19T05:54:38;7.07;;;6.47;;
16998;SDS011;10211;49.476;11.010;2023-11-19T05:57:05;8.33;;;6.67;;
16998;SDS011;10211;49.476;11.010;2023-11-19T05:59:34;5.73;;;5.13;;
16998;SDS011;10211;49.476;11.010;2023-11-19T06:02:01;6.10;;;4.83;;
16998;SDS011;10211;49.476;11.010;2023-11-19T06:04:28;6.33;;;5.67;;
16998;SDS011;10211;49.476;11.010;2023-11-19T06:06:54;7.77;;;5.40;;
16998;SDS011;10211;49.476;11.010;2023-11-19T06:09:21;5.80;;;4.93;;
16998;SDS011;10211;49.476;11.010;2023-11-19T06:11:50;7.03;;;5.87;;
16998;SDS011;10211;49.476;11.010;2023-11-19T06:14:18;6.90;;;6.20;;
16998;SDS011;10211;49.476;11.010;2023-11-19T06:16:44;7.13;;;6.60;;
16998;SDS011;10211;49.476;11.010;2023-11-19T06:19:11;8.27;;;7.67;;
16998;SDS011;10211;49.476;11.010;2023-11-19T06:21:38;8.93;;;8.33;;
16998;SDS011;10211;49.476;11.010;2023-11-19T06:24:05;8.20;;;7.60;;
16998;SDS011;10211;49.476;11.010;2023-11-19T06:26:32;8.30;;;7.60;;
16998;SDS011;10211;49.476;11.010;2023-11-19T06:29:00;8.80;;;8.10;;
16998;SDS011;10211;49.476;11.010;2023-11-19T06:31:27;8.90;;;8.20;;
16998;SDS011;10211;49.476;11.010;2023-11-19T06:33:53;9.67;;;8.83;;
16998;SDS011;10211;49.476;11.010;2023-11-19T06:36:20;9.13;;;8.43;;
16998;SDS011;10211;49.476;11.010;2023-11-19T06:38:47;8.50;;;7.90;;
16998;SDS011;10211;49.476;11.010;2023-11-19T06:41:14;9.90;;;8.90;;
16998;SDS011;10211;49.476;11.010;2023-11-19T06:43:41;9.20;;;8.40;;
16998;SDS011;10211;49.476;11.010;2023-11-19T06:46:15;8.90;;;8.00;;
16998;SDS011;10211;49.476;11.010;2023-11-19T06:48:42;8.73;;;8.03;;
16998;SDS011;10211;49.476;11.010;2023-11-19T06:51:09;9.37;;;8.57;;
16998;SDS011;10211;49.476;11.010;2023-11-19T06:53:36;7.67;;;7.03;;
16998;SDS011;10211;49.476;11.010;2023-11-19T06:56:04;7.13;;;6.53;;
16998;SDS011;10211;49.476;11.010;2023-11-19T06:58:35;6.17;;;5.40;;
16998;SDS011;10211;49.476;11.010;2023-11-19T07:01:02;9.57;;;5.43;;
16998;SDS011;10211;49.476;11.010;2023-11-19T07:03:31;7.00;;;6.37;;
16998;SDS011;10211;49.476;11.010;2023-11-19T07:05:58;6.17;;;5.67;;
16998;SDS011;10211;49.476;11.010;2023-11-19T07:08:24;7.10;;;6.60;;
16998;SDS011;10211;49.476;11.010;2023-11-19T07:10:51;3.83;;;3.53;;
16998;SDS011;10211;49.476;11.010;2023-11-19T07:13:18;3.53;;;3.23;;
16998;SDS011;10211;49.476;11.010;2023-11-19T07:15:45;3.53;;;3.23;;
16998;SDS011;10211;49.476;11.010;2023-11-19T07:18:13;4.60;;;4.30;;
16998;SDS011;10211;49.476;11.010;2023-11-19T07:20:41;4.50;;;4.30;;
16998;SDS011;10211;49.476;11.010;2023-11-19T07:23:08;5.47;;;5.17;;
16998;SDS011;10211;49.476;11.010;2023-11-19T07:25:35;5.10;;;4.80;;
16998;SDS011;10211;49.476;11.010;2023-11-19T07:28:02;4.20;;;4.00;;
16998;SDS011;10211;49.476;11.010;2023-11-19T07:30:29;4.33;;;4.03;;
16998;SDS011;10211;49.476;11.010;2023-11-19T07:32:56;4.70;;;4.50;;
16998;SDS011;10211;49.476;11.010;2023-11-19T07:35:23;5.20;;;5.00;;
16998;SDS011;10211;49.476;11.010;2023-11-19T07:37:51;5.20;;;5.00;;
16998;SDS011;10211;49.476;11.010;2023-11-19T07:40:18;1.90;;;1.80;;
16998;SDS011;10211;49.476;11.010;2023-11-19T07:42:45;2.90;;;2.80;;
16998;SDS011;10211;49.476;11.010;2023-11-19T07:45:11;3.77;;;3.57;;
16998;SDS011;10211;49.476;11.010;2023-11-19T07:47:39;3.30;;;3.10;;
16998;SDS011;10211;49.476;11.010;2023-11-19T07:50:07;2.77;;;2.67;;
16998;SDS011;10211;49.476;11.010;2023-11-19T07:52:35;2.90;;;2.70;;
16998;SDS011;10211;49.476;11.010;2023-11-19T07:55:05;2.10;;;2.10;;
16998;SDS011;10211;49.476;11.010;2023-11-19T07:57:32;3.13;;;2.87;;
16998;SDS011;10211;49.476;11.010;2023-11-19T07:59:59;1.70;;;1.60;;
16998;SDS011;10211;49.476;11.010;2023-11-19T08:02:26;1.60;;;1.60;;
16998;SDS011;10211;49.476;11.010;2023-11-19T08:04:53;1.50;;;1.50;;
16998;SDS011;10211;49.476;11.010;2023-11-19T08:07:20;1.30;;;1.30;;
16998;SDS011;10211;49.476;11.010;2023-11-19T08:09:47;1.10;;;1.10;;
16998;SDS011;10211;49.476;11.010;2023-11-19T08:12:15;1.07;;;1.07;;
16998;SDS011;10211;49.476;11.010;2023-11-19T08:14:42;1.37;;;1.37;;
16998;SDS011;10211;49.476;11.010;2023-11-19T08:17:09;1.63;;;1.53;;
16998;SDS011;10211;49.476;11.010;2023-11-19T08:19:36;2.10;;;1.90;;
16998;SDS011;10211;49.476;11.010;2023-11-19T08:22:03;0.50;;;0.50;;
16998;SDS011;10211;49.476;11.010;2023-11-19T08:24:29;0.53;;;0.53;;
16998;SDS011;10211;49.476;11.010;2023-11-19T08:26:56;1.13;;;0.50;;
16998;SDS011;10211;49.476;11.010;2023-11-19T08:29:24;0.87;;;0.67;;
16998;SDS011;10211;49.476;11.010;2023-11-19T08:31:52;2.03;;;0.73;;
16998;SDS011;10211;49.476;11.010;2023-11-19T08:34:19;1.37;;;0.70;;
16998;SDS011;10211;49.476;11.010;2023-11-19T08:36:46;0.60;;;0.60;;
16998;SDS011;10211;49.476;11.010;2023-11-19T08:39:18;1.50;;;1.40;;
16998;SDS011;10211;49.476;11.010;2023-11-19T08:41:46;1.10;;;1.10;;
16998;SDS011;10211;49.476;11.010;2023-11-19T08:44:12;0.97;;;0.97;;
16998;SDS011;10211;49.476;11.010;2023-11-19T08:46:47;0.90;;;0.90;;
16998;SDS011;10211;49.476;11.010;2023-11-19T08:49:14;0.90;;;0.90;;
16998;SDS011;10211;49.476;11.010;2023-11-19T08:51:40;1.10;;;1.00;;
16998;SDS011;10211;49.476;11.010;2023-11-19T08:54:07;0.83;;;0.83;;
16998;SDS011;10211;49.476;11.010;2023-11-19T08:56:34;0.70;;;0.70;;
16998;SDS011;10211;49.476;11.010;2023-11-19T08:59:01;2.47;;;0.70;;
16998;SDS011;10211;49.476;11.010;2023-11-19T09:01:31;1.10;;;0.60;;
16998;SDS011;10211;49.476;11.010;2023-11-19T09:03:59;1.17;;;1.00;;
16998;SDS011;10211;49.476;11.010;2023-11-19T09:06:26;1.13;;;1.00;;
16998;SDS011;10211;49.476;11.010;2023-11-19T09:08:53;2.93;;;0.80;;
16998;SDS011;10211;49.476;11.010;2023-11-19T09:11:23;3.10;;;3.00;;
16998;SDS011;10211;49.476;11.010;2023-11-19T09:13:50;3.13;;;0.90;;
16998;SDS011;10211;49.476;11.010;2023-11-19T09:16:16;0.60;;;0.60;;
16998;SDS011;10211;49.476;11.010;2023-11-19T09:18:43;0.53;;;0.47;;
16998;SDS011;10211;49.476;11.010;2023-11-19T09:21:11;1.00;;;0.90;;
16998;SDS011;10211;49.476;11.010;2023-11-19T09:23:38;1.53;;;1.03;;
16998;SDS011;10211;49.476;11.010;2023-11-19T09:26:06;1.10;;;1.10;;
16998;SDS011;10211;49.476;11.010;2023-11-19T09:28:35;3.50;;;1.07;;
16998;SDS011;10211;49.476;11.010;2023-11-19T09:31:12;1.00;;;1.00;;
16998;SDS011;10211;49.476;11.010;2023-11-19T09:33:39;4.07;;;1.07;;
16998;SDS011;10211;49.476;11.010;2023-11-19T09:36:06;1.00;;;1.00;;
16998;SDS011;10211;49.476;11.010;2023-11-19T09:38:34;1.93;;;1.10;;
16998;SDS011;10211;49.476;11.010;2023-11-19T09:41:03;1.03;;;1.03;;
16998;SDS011;10211;49.476;11.010;2023-11-19T09:43:33;1.27;;;0.90;;
16998;SDS011;10211;49.476;11.010;2023-11-19T09:46:01;0.70;;;0.70;;
16998;SDS011;10211;49.476;11.010;2023-11-19T09:48:32;1.33;;;1.23;;
16998;SDS011;10211;49.476;11.010;2023-11-19T09:50:59;1.43;;;1.20;;
16998;SDS011;10211;49.476;11.010;2023-11-19T09:53:27;3.03;;;1.07;;
16998;SDS011;10211;49.476;11.010;2023-11-19T09:55:55;1.27;;;1.10;;
16998;SDS011;10211;49.476;11.010;2023-11-19T09:58:22;3.47;;;1.00;;
16998;SDS011;10211;49.476;11.010;2023-11-19T10:00:49;1.70;;;0.90;;
16998;SDS011;10211;49.476;11.010;2023-11-19T10:03:18;1.83;;;1.73;;
16998;SDS011;10211;49.476;11.010;2023-11-19T10:05:45;2.10;;;1.90;;
16998;SDS011;10211;49.476;11.010;2023-11-19T10:08:11;4.30;;;4.00;;
16998;SDS011;10211;49.476;11.010;2023-11-19T10:10:39;1.27;;;1.17;;
16998;SDS011;10211;49.476;11.010;2023-11-19T10:13:07;1.17;;;1.10;;
16998;SDS011;10211;49.476;11.010;2023-11-19T10:15:35;2.07;;;1.03;;
16998;SDS011;10211;49.476;11.010;2023-11-19T10:18:03;1.40;;;1.10;;
16998;SDS011;10211;49.476;11.010;2023-11-19T10:20:34;4.07;;;1.00;;
16998;SDS011;10211;49.476;11.010;2023-11-19T10:23:02;3.07;;;1.10;;
16998;SDS011;10211;49.476;11.010;2023-11-19T10:25:29;1.20;;;1.03;;
16998;SDS011;10211;49.476;11.010;2023-11-19T10:27:56;2.07;;;1.90;;
16998;SDS011;10211;49.476;11.010;2023-11-19T10:30:25;1.07;;;0.97;;
16998;SDS011;10211;49.476;11.010;2023-11-19T10:33:02;2.80;;;2.60;;
16998;SDS011;10211;49.476;11.010;2023-11-19T10:35:30;3.27;;;2.80;;
16998;SDS011;10211;49.476;11.010;2023-11-19T10:37:58;3.00;;;2.90;;
16998;SDS011;10211;49.476;11.010;2023-11-19T10:40:37;5.10;;;1.03;;
16998;SDS011;10211;49.476;11.010;2023-11-19T10:43:04;1.67;;;0.80;;
16998;SDS011;10211;49.476;11.010;2023-11-19T10:45:34;0.80;;;0.77;;
16998;SDS011;10211;49.476;11.010;2023-11-19T10:48:01;1.30;;;1.20;;
16998;SDS011;10211;49.476;11.010;2023-11-19T10:50:31;1.07;;;1.00;;
16998;SDS011;10211;49.476;11.010;2023-11-19T10:52:58;0.87;;;0.80;;
16998;SDS011;10211;49.476;11.010;2023-11-19T10:55:26;1.97;;;1.70;;
16998;SDS011;10211;49.476;11.010;2023-11-19T10:57:56;3.10;;;2.23;;
16998;SDS011;10211;49.476;11.010;2023-11-19T11:00:26;1.83;;;1.73;;
16998;SDS011;10211;49.476;11.010;2023-11-19T11:02:56;4.30;;;1.87;;
16998;SDS011;10211;49.476;11.010;2023-11-19T11:05:27;1.67;;;0.90;;
16998;SDS011;10211;49.476;11.010;2023-11-19T11:07:57;1.00;;;0.70;;
16998;SDS011;10211;49.476;11.010;2023-11-19T11:10:26;1.60;;;0.97;;
16998;SDS011;10211;49.476;11.010;2023-11-19T11:12:54;2.63;;;1.20;;
16998;SDS011;10211;49.476;11.010;2023-11-19T11:15:25;3.10;;;0.60;;
16998;SDS011;10211;49.476;11.010;2023-11-19T11:17:57;0.60;;;0.60;;
16998;SDS011;10211;49.476;11.010;2023-11-19T11:20:26;2.00;;;0.50;;
16998;SDS011;10211;49.476;11.010;2023-11-19T11:23:03;0.50;;;0.50;;
16998;SDS011;10211;49.476;11.010;2023-11-19T11:25:45;5.07;;;1.20;;
16998;SDS011;10211;49.476;11.010;2023-11-19T11:28:26;0.83;;;0.70;;
16998;SDS011;10211;49.476;11.010;2023-11-19T11:31:04;2.13;;;0.90;;
16998;SDS011;10211;49.476;11.010;2023-11-19T11:36:38;2.20;;;0.90;;
16998;SDS011;10211;49.476;11.010;2023-11-19T11:39:14;0.70;;;0.60;;
16998;SDS011;10211;49.476;11.010;2023-11-19T11:41:43;0.90;;;0.70;;
16998;SDS011;10211;49.476;11.010;2023-11-19T11:44:10;1.87;;;1.10;;
16998;SDS011;10211;49.476;11.010;2023-11-19T11:46:56;2.13;;;0.90;;
16998;SDS011;10211;49.476;11.010;2023-11-19T11:49:28;1.60;;;0.97;;
16998;SDS011;10211;49.476;11.010;2023-11-19T11:52:00;2.03;;;0.77;;
16998;SDS011;10211;49.476;11.010;2023-11-19T11:54:28;3.23;;;0.80;;
16998;SDS011;10211;49.476;11.010;2023-11-19T11:57:08;2.37;;;0.90;;
16998;SDS011;10211;49.476;11.010;2023-11-19T11:59:37;2.00;;;0.90;;
16998;SDS011;10211;49.476;11.010;2023-11-19T12:02:09;1.53;;;0.90;;
16998;SDS011;10211;49.476;11.010;2023-11-19T12:04:40;4.07;;;0.77;;
16998;SDS011;10211;49.476;11.010;2023-11-19T12:07:08;2.20;;;1.43;;
16998;SDS011;10211;49.476;11.010;2023-11-19T12:09:41;2.10;;;0.90;;
16998;SDS011;10211;49.476;11.010;2023-11-19T12:15:01;1.83;;;0.73;;
16998;SDS011;10211;49.476;11.010;2023-11-19T12:17:37;4.57;;;1.23;;
16998;SDS011;10211;49.476;11.010;2023-11-19T12:20:15;2.70;;;0.80;;
16998;SDS011;10211;49.476;11.010;2023-11-19T12:22:43;1.17;;;1.03;;
16998;SDS011;10211;49.476;11.010;2023-11-19T12:25:11;1.20;;;1.10;;
16998;SDS011;10211;49.476;11.010;2023-11-19T12:27:39;2.00;;;1.07;;
16998;SDS011;10211;49.476;11.010;2023-11-19T12:30:07;1.80;;;1.10;;
16998;SDS011;10211;49.476;11.010;2023-11-19T12:32:38;6.93;;;1.97;;
16998;SDS011;10211;49.476;11.010;2023-11-19T12:35:06;1.20;;;1.07;;
16998;SDS011;10211;49.476;11.010;2023-11-19T12:37:40;3.87;;;1.10;;
16998;SDS011;10211;49.476;11.010;2023-11-19T12:40:11;3.57;;;1.43;;
16998;SDS011;10211;49.476;11.010;2023-11-19T12:42:40;1.47;;;0.77;;
16998;SDS011;10211;49.476;11.010;2023-11-19T12:45:07;2.47;;;0.83;;
16998;SDS011;10211;49.476;11.010;2023-11-19T12:47:35;0.97;;;0.77;;
16998;SDS011;10211;49.476;11.010;2023-11-19T12:50:03;1.60;;;0.83;;
16998;SDS011;10211;49.476;11.010;2023-11-19T12:52:30;1.70;;;0.80;;
16998;SDS011;10211;49.476;11.010;2023-11-19T12:54:59;0.60;;;0.60;;
16998;SDS011;10211;49.476;11.010;2023-11-19T12:57:36;2.07;;;1.10;;
16998;SDS011;10211;49.476;11.010;2023-11-19T13:00:04;1.10;;;0.70;;
16998;SDS011;10211;49.476;11.010;2023-11-19T13:02:46;1.13;;;0.93;;
16998;SDS011;10211;49.476;11.010;2023-11-19T13:05:21;2.83;;;0.70;;
16998;SDS011;10211;49.476;11.010;2023-11-19T13:07:58;0.70;;;0.70;;
16998;SDS011;10211;49.476;11.010;2023-11-19T13:10:27;0.77;;;0.63;;
16998;SDS011;10211;49.476;11.010;2023-11-19T13:13:01;4.93;;;1.13;;
16998;SDS011;10211;49.476;11.010;2023-11-19T13:15:28;5.40;;;1.07;;
16998;SDS011;10211;49.476;11.010;2023-11-19T13:17:55;2.37;;;0.90;;
16998;SDS011;10211;49.476;11.010;2023-11-19T13:20:22;3.17;;;0.80;;
16998;SDS011;10211;49.476;11.010;2023-11-19T13:22:56;2.83;;;1.30;;
16998;SDS011;10211;49.476;11.010;2023-11-19T13:25:23;1.20;;;0.80;;
16998;SDS011;10211;49.476;11.010;2023-11-19T13:27:51;0.80;;;0.80;;
16998;SDS011;10211;49.476;11.010;2023-11-19T13:30:18;2.60;;;0.83;;
16998;SDS011;10211;49.476;11.010;2023-11-19T13:32:45;1.53;;;0.77;;
16998;SDS011;10211;49.476;11.010;2023-11-19T13:35:13;1.67;;;0.80;;
16998;SDS011;10211;49.476;11.010;2023-11-19T13:37:40;1.23;;;0.70;;
16998;SDS011;10211;49.476;11.010;2023-11-19T13:40:07;1.53;;;0.60;;
16998;SDS011;10211;49.476;11.010;2023-11-19T13:42:38;0.50;;;0.50;;
16998;SDS011;10211;49.476;11.010;2023-11-19T13:45:08;2.43;;;0.80;;
16998;SDS011;10211;49.476;11.010;2023-11-19T13:47:36;1.03;;;0.70;;
16998;SDS011;10211;49.476;11.010;2023-11-19T13:50:06;3.73;;;0.83;;
16998;SDS011;10211;49.476;11.010;2023-11-19T13:52:34;2.83;;;1.03;;
16998;SDS011;10211;49.476;11.010;2023-11-19T13:55:02;6.53;;;0.70;;
16998;SDS011;10211;49.476;11.010;2023-11-19T13:57:29;1.90;;;0.70;;
16998;SDS011;10211;49.476;11.010;2023-11-19T13:59:56;0.90;;;0.60;;
16998;SDS011;10211;49.476;11.010;2023-11-19T14:02:24;4.60;;;1.00;;
16998;SDS011;10211;49.476;11.010;2023-11-19T14:04:51;2.83;;;0.70;;
16998;SDS011;10211;49.476;11.010;2023-11-19T14:07:18;0.80;;;0.50;;
16998;SDS011;10211;49.476;11.010;2023-11-19T14:09:44;1.33;;;0.80;;
16998;SDS011;10211;49.476;11.010;2023-11-19T14:12:11;1.50;;;0.60;;
16998;SDS011;10211;49.476;11.010;2023-11-19T14:14:38;0.97;;;0.70;;
16998;SDS011;10211;49.476;11.010;2023-11-19T14:17:07;3.03;;;0.73;;
16998;SDS011;10211;49.476;11.010;2023-11-19T14:19:35;4.23;;;0.60;;
16998;SDS011;10211;49.476;11.010;2023-11-19T14:22:01;1.13;;;0.70;;
16998;SDS011;10211;49.476;11.010;2023-11-19T14:24:28;1.90;;;0.70;;
16998;SDS011;10211;49.476;11.010;2023-11-19T14:26:55;0.50;;;0.50;;
16998;SDS011;10211;49.476;11.010;2023-11-19T14:29:23;1.30;;;0.73;;
16998;SDS011;10211;49.476;11.010;2023-11-19T14:31:51;1.63;;;0.80;;
16998;SDS011;10211;49.476;11.010;2023-11-19T14:34:18;1.50;;;0.80;;
16998;SDS011;10211;49.476;11.010;2023-11-19T14:36:47;2.83;;;0.83;;
16998;SDS011;10211;49.476;11.010;2023-11-19T14:39:14;1.17;;;0.60;;
16998;SDS011;10211;49.476;11.010;2023-11-19T14:41:42;0.63;;;0.63;;
16998;SDS011;10211;49.476;11.010;2023-11-19T14:44:09;2.10;;;0.63;;
16998;SDS011;10211;49.476;11.010;2023-11-19T14:46:36;0.93;;;0.80;;